Island Lake Airport
CYIV : rendu visible

Aérodrome :











RETROUVEZ-NOUS SUR...

 
LOGIN :

S'inscrire | Disclaimer

   EN    FR    IT 

 









Légende :    VFR   VFR Marginal   IFR   IFR Intensif   IFR Très Intensif
Visi : 
Plafond : 
>= 8 km
>= 3000ft
5 à 8 km
1000 à 3000 ft
1500m à 5 km
500 à 1000 ft
800 à 1500m
200 à 500 ft
< 800m
< 200 ft
Symboles :   Orages  Brouillard  Fortes neiges  Fortes précipitations  Vent > 20 kt






- Altitude de l'aérodrome : 770 ft
- Code IATA : YIV


CYIV - Island Lake

METARs EXPIRÉS :
  • 040000Z 23011KT 1 1/4SM -SN BR OVC070 M02/M04 A2990 RMK AC8 SLP140

TAF TAF CYIV
Valide du 04 à 01h jusqu'au 04 à 13h UTC


040038Z 0401/0413 23010KT 3SM -SN OVC025
TEMPO 0401/0406 3/4SM -SN BR VV010
FM040600 24010G20KT 2SM -SN OVC020
TEMPO 0406/0413 6SM -SN OVC040 RMK NXT FCST BY 040700Z



MET'MAP, la Météo Aéronautique d'un coup d'oeil ! - Copyright ORBIFLY Décembre 2007 - Disclaimer

ORBIFLY MET'MAP TEAM :

Programmation & Développement : Alexandra Zaïnal
Sur une idée originale de : Baudouin d'Aumeries
Assistance à la programmation : Marc-Olivier Méhu
Soutien technique & logistique : Manuel Goepfert

Contact : metmap@orbifly.com




SOURCES & CREDITS :

   NOAA       Earth
Advisory